Time;durP1;ratioP1;P1;durP2;ratioP2;P2;SDS_P1;SDS_P2;PMS_P1;PMS_P2;Temp;Humidity;BMP_temperature;BMP_pressure;BME280_temperature;BME280_humidity;BME280_pressure;Samples;Min_cycle;Max_cycle;Signal;HPM_P1;HPM_P2
2021/09/25 00:00:00;;;;;;;12.43;7.82;;;15.30;99.90;;;;;;4954957;28;20230;-75
2021/09/25 00:02:27;;;;;;;10.02;8.20;;;15.20;99.90;;;;;;4955708;28;20680;-76
2021/09/25 00:04:54;;;;;;;8.95;7.00;;;15.20;99.90;;;;;;4955460;28;20259;-77
2021/09/25 00:07:20;;;;;;;11.63;8.05;;;15.20;99.90;;;;;;4955884;28;20296;-76
2021/09/25 00:09:47;;;;;;;11.38;8.35;;;15.20;99.90;;;;;;4955773;28;20207;-75
2021/09/25 00:12:16;;;;;;;11.27;8.20;;;15.10;99.90;;;;;;4955591;28;20215;-75
2021/09/25 00:14:44;;;;;;;12.30;7.68;;;15.00;99.90;;;;;;4955350;28;20256;-76
2021/09/25 00:17:13;;;;;;;10.43;8.00;;;14.90;99.90;;;;;;4955566;28;20207;-77
2021/09/25 00:19:40;;;;;;;12.52;8.32;;;14.90;99.90;;;;;;4956393;28;20254;-78
2021/09/25 00:22:08;;;;;;;11.15;8.65;;;14.90;99.90;;;;;;4957118;28;20212;-78
2021/09/25 00:24:36;;;;;;;10.70;8.45;;;15.00;99.90;;;;;;4956748;28;20224;-78
2021/09/25 00:27:03;;;;;;;10.30;8.15;;;15.00;99.90;;;;;;4957304;28;20301;-77
2021/09/25 00:29:32;;;;;;;11.88;7.93;;;14.90;99.90;;;;;;4957541;28;20215;-77
2021/09/25 00:31:59;;;;;;;12.07;8.35;;;14.90;99.90;;;;;;4957228;28;20581;-80
2021/09/25 00:34:25;;;;;;;11.10;7.55;;;14.90;99.90;;;;;;4961160;28;20322;-78
2021/09/25 00:36:52;;;;;;;12.20;8.13;;;14.90;99.90;;;;;;4960193;28;20314;-77
2021/09/25 00:39:19;;;;;;;10.35;7.68;;;15.00;99.90;;;;;;4961044;28;20263;-80
2021/09/25 00:41:46;;;;;;;11.30;8.05;;;14.90;99.90;;;;;;4959844;28;20255;-77
2021/09/25 00:44:13;;;;;;;9.48;7.05;;;15.00;99.90;;;;;;4956958;28;20229;-76
2021/09/25 00:46:41;;;;;;;9.32;7.45;;;14.90;99.90;;;;;;4955406;28;20220;-78
2021/09/25 00:49:08;;;;;;;12.27;8.68;;;15.00;99.90;;;;;;4956860;28;20204;-77
2021/09/25 00:51:35;;;;;;;10.77;7.03;;;14.70;99.90;;;;;;4960411;28;20208;-77
2021/09/25 00:54:01;;;;;;;12.10;8.25;;;14.70;99.90;;;;;;4961433;28;20319;-77
2021/09/25 00:56:29;;;;;;;10.48;8.10;;;14.70;99.90;;;;;;4960880;28;20204;-77
2021/09/25 00:58:55;;;;;;;9.40;7.50;;;14.60;99.90;;;;;;4957815;28;20215;-76
2021/09/25 01:01:22;;;;;;;9.77;7.88;;;14.70;99.90;;;;;;4964052;28;20263;-78
2021/09/25 01:03:50;;;;;;;8.50;6.50;;;14.70;99.90;;;;;;4960573;28;20311;-79
2021/09/25 01:06:17;;;;;;;8.38;6.47;;;14.90;99.90;;;;;;4958351;28;20292;-78
2021/09/25 01:08:47;;;;;;;10.10;7.50;;;14.80;99.90;;;;;;4957993;28;20295;-79
2021/09/25 01:11:14;;;;;;;8.32;6.32;;;14.80;99.90;;;;;;4957970;28;20213;-79
2021/09/25 01:13:41;;;;;;;9.10;6.57;;;14.80;99.90;;;;;;4957398;28;20315;-77
2021/09/25 01:16:08;;;;;;;8.52;7.25;;;14.80;99.90;;;;;;4956698;28;20219;-78
2021/09/25 01:18:35;;;;;;;11.68;6.63;;;14.80;99.90;;;;;;4957924;28;20565;-78
2021/09/25 01:21:05;;;;;;;7.60;6.65;;;14.80;99.90;;;;;;4957492;28;20235;-76
2021/09/25 01:23:32;;;;;;;7.88;6.70;;;14.70;99.90;;;;;;4956052;28;20208;-77
2021/09/25 01:26:00;;;;;;;8.48;7.00;;;14.60;99.90;;;;;;4955900;28;20207;-80
2021/09/25 01:28:27;;;;;;;9.13;6.85;;;14.60;99.90;;;;;;4957811;28;20213;-79
2021/09/25 01:30:54;;;;;;;9.35;7.60;;;14.50;99.90;;;;;;4957613;28;20206;-77
2021/09/25 01:33:25;;;;;;;10.65;7.45;;;14.60;99.90;;;;;;4959799;28;20312;-81
2021/09/25 01:35:52;;;;;;;9.27;6.35;;;14.60;99.90;;;;;;4963597;28;20287;-81
2021/09/25 01:38:21;;;;;;;10.52;7.15;;;14.60;99.90;;;;;;4965091;28;20275;-82
2021/09/25 01:40:48;;;;;;;11.75;7.80;;;14.50;99.90;;;;;;4965901;28;20254;-82
2021/09/25 01:43:16;;;;;;;9.05;6.75;;;14.40;99.90;;;;;;4965647;28;20241;-81
2021/09/25 01:45:43;;;;;;;11.60;7.38;;;14.40;99.90;;;;;;4967570;28;20211;-81
2021/09/25 01:48:11;;;;;;;9.70;7.45;;;14.40;99.90;;;;;;4965036;28;20207;-80
2021/09/25 01:50:39;;;;;;;12.80;6.90;;;14.20;99.90;;;;;;4958205;28;20211;-77
2021/09/25 01:53:06;;;;;;;11.48;7.28;;;14.20;99.90;;;;;;4957846;28;20667;-77
2021/09/25 01:55:34;;;;;;;8.20;6.03;;;14.30;99.90;;;;;;4958297;28;20223;-78
2021/09/25 01:58:01;;;;;;;7.75;6.28;;;14.30;99.90;;;;;;4958701;28;20284;-77
2021/09/25 02:00:30;;;;;;;9.90;7.32;;;14.40;99.90;;;;;;4958108;28;20224;-77
2021/09/25 02:02:56;;;;;;;9.88;7.15;;;14.40;99.90;;;;;;4957914;28;20210;-77
2021/09/25 02:05:23;;;;;;;8.77;7.13;;;14.30;99.90;;;;;;4958569;28;20315;-77
2021/09/25 02:07:50;;;;;;;9.45;7.45;;;14.10;99.90;;;;;;4958739;28;20238;-77
2021/09/25 02:10:17;;;;;;;10.02;7.57;;;13.90;99.90;;;;;;4958903;28;20294;-77
2021/09/25 02:12:46;;;;;;;10.05;6.90;;;13.80;99.90;;;;;;4958210;28;20203;-77
2021/09/25 02:15:14;;;;;;;9.48;6.75;;;13.80;99.90;;;;;;4958394;28;20223;-77
2021/09/25 02:17:42;;;;;;;9.75;7.38;;;13.90;99.90;;;;;;4958249;28;20301;-77
2021/09/25 02:20:11;;;;;;;9.13;6.40;;;13.80;99.90;;;;;;4958495;28;20310;-77
2021/09/25 02:22:39;;;;;;;8.23;6.75;;;13.80;99.90;;;;;;4957815;28;20289;-77
2021/09/25 02:25:08;;;;;;;12.70;6.90;;;13.80;99.90;;;;;;4961866;28;20223;-77
2021/09/25 02:27:39;;;;;;;10.80;7.57;;;13.90;99.90;;;;;;4961937;28;20236;-77
2021/09/25 02:30:10;;;;;;;8.30;6.80;;;14.00;99.90;;;;;;4961770;28;20206;-77
2021/09/25 02:32:37;;;;;;;10.73;7.22;;;14.00;99.90;;;;;;4961426;28;20302;-77
2021/09/25 02:35:06;;;;;;;9.25;7.28;;;14.00;99.90;;;;;;4961434;28;20232;-77
2021/09/25 02:37:33;;;;;;;9.55;6.80;;;14.00;99.90;;;;;;4961673;28;20210;-77
2021/09/25 02:40:00;;;;;;;10.15;7.13;;;13.80;99.90;;;;;;4961865;28;20632;-77
2021/09/25 02:42:28;;;;;;;10.40;6.70;;;13.60;99.90;;;;;;4961320;28;20313;-77
2021/09/25 02:44:55;;;;;;;9.02;6.65;;;13.60;99.90;;;;;;4961106;28;20277;-77
2021/09/25 02:47:23;;;;;;;7.97;6.65;;;13.60;99.90;;;;;;4961535;28;20271;-77
2021/09/25 02:49:50;;;;;;;10.32;6.63;;;13.40;99.90;;;;;;4961739;28;20213;-77
2021/09/25 02:52:17;;;;;;;9.05;6.82;;;13.40;99.90;;;;;;4960530;28;20685;-77
2021/09/25 02:54:43;;;;;;;9.25;6.50;;;13.20;99.90;;;;;;4961349;28;20313;-77
2021/09/25 02:57:10;;;;;;;8.35;6.57;;;13.10;99.90;;;;;;4961129;28;20270;-77
2021/09/25 02:59:37;;;;;;;9.55;7.00;;;12.90;99.90;;;;;;4961131;28;20209;-77
2021/09/25 03:02:04;;;;;;;11.50;7.85;;;13.10;99.90;;;;;;4960738;28;20372;-77
2021/09/25 03:04:32;;;;;;;10.85;7.65;;;13.10;99.90;;;;;;4960818;28;20287;-77
2021/09/25 03:06:59;;;;;;;9.40;6.90;;;13.20;99.90;;;;;;4961594;28;20313;-77
2021/09/25 03:09:26;;;;;;;8.30;6.80;;;13.30;99.90;;;;;;4960946;28;20298;-77
2021/09/25 03:11:53;;;;;;;9.18;6.05;;;13.40;99.90;;;;;;4960882;28;20207;-77
2021/09/25 03:14:19;;;;;;;9.60;6.32;;;13.50;99.90;;;;;;4960804;28;20764;-77
2021/09/25 03:16:46;;;;;;;10.57;6.78;;;13.50;99.90;;;;;;4960948;28;20275;-77
2021/09/25 03:19:13;;;;;;;9.88;6.97;;;13.40;99.90;;;;;;4960869;28;20297;-77
2021/09/25 03:21:41;;;;;;;9.10;7.10;;;13.10;99.90;;;;;;4960183;28;20315;-77
2021/09/25 03:24:08;;;;;;;9.98;6.50;;;13.10;99.90;;;;;;4960415;28;20725;-77
2021/09/25 03:26:35;;;;;;;7.53;5.80;;;13.20;99.90;;;;;;4960375;28;20207;-77
2021/09/25 03:29:02;;;;;;;8.15;5.95;;;13.30;99.90;;;;;;4960887;28;20194;-77
2021/09/25 03:31:29;;;;;;;7.70;5.82;;;13.30;99.90;;;;;;4960586;28;20207;-77
2021/09/25 03:33:56;;;;;;;10.57;6.45;;;13.40;99.90;;;;;;4959927;28;20235;-78
2021/09/25 03:36:23;;;;;;;9.07;6.35;;;13.50;99.90;;;;;;4960707;28;20302;-77
2021/09/25 03:38:51;;;;;;;7.03;5.90;;;13.40;99.90;;;;;;4960354;28;20306;-77
2021/09/25 03:41:18;;;;;;;9.63;7.22;;;13.20;99.90;;;;;;4960125;28;20317;-77
2021/09/25 03:43:49;;;;;;;8.32;6.93;;;13.30;99.90;;;;;;4960188;28;20317;-77
2021/09/25 03:46:17;;;;;;;10.48;6.80;;;13.20;99.90;;;;;;4960362;28;20665;-77
2021/09/25 03:48:43;;;;;;;8.57;5.95;;;13.10;99.90;;;;;;4959970;28;20546;-77
2021/09/25 03:51:11;;;;;;;7.38;5.82;;;13.20;99.90;;;;;;4960064;28;20203;-77
2021/09/25 03:53:38;;;;;;;7.82;5.70;;;13.30;99.90;;;;;;4960348;28;20338;-77
2021/09/25 03:56:08;;;;;;;7.55;5.80;;;13.30;99.90;;;;;;4960022;28;20613;-77
2021/09/25 03:58:35;;;;;;;7.68;6.32;;;13.40;99.90;;;;;;4960467;28;20202;-77
2021/09/25 04:01:02;;;;;;;8.43;5.80;;;13.40;99.90;;;;;;4959909;28;20273;-78
2021/09/25 04:03:29;;;;;;;6.20;5.20;;;13.20;99.90;;;;;;4960111;28;20297;-77
2021/09/25 04:05:56;;;;;;;9.48;5.75;;;12.90;99.90;;;;;;4959921;28;20207;-77
2021/09/25 04:08:23;;;;;;;7.72;5.15;;;12.80;99.90;;;;;;4960001;28;20274;-77
2021/09/25 04:10:50;;;;;;;7.38;6.28;;;12.90;99.90;;;;;;4959879;28;20213;-77
2021/09/25 04:13:18;;;;;;;7.55;5.63;;;13.00;99.90;;;;;;4959854;28;20237;-77
2021/09/25 04:15:45;;;;;;;8.77;6.55;;;12.90;99.90;;;;;;4959706;28;20626;-77
2021/09/25 04:18:12;;;;;;;7.78;5.43;;;12.90;99.90;;;;;;4959658;28;20297;-78
2021/09/25 04:20:39;;;;;;;6.78;5.30;;;13.10;99.90;;;;;;4959539;28;20255;-77
2021/09/25 04:23:06;;;;;;;7.32;5.82;;;13.10;99.90;;;;;;4959503;28;20294;-78
2021/09/25 04:25:33;;;;;;;9.38;6.75;;;13.20;99.90;;;;;;4958910;28;20223;-77
2021/09/25 04:28:04;;;;;;;8.02;5.70;;;13.20;99.90;;;;;;4959502;28;20298;-77
2021/09/25 04:30:33;;;;;;;6.90;5.68;;;13.20;99.90;;;;;;4959769;28;20230;-77
2021/09/25 04:32:59;;;;;;;9.70;6.13;;;13.20;99.90;;;;;;4959215;28;20301;-77
2021/09/25 04:35:26;;;;;;;7.78;6.15;;;13.30;99.90;;;;;;4959760;28;20222;-77
2021/09/25 04:37:54;;;;;;;6.57;5.07;;;13.40;99.90;;;;;;4959604;28;20210;-77
2021/09/25 04:40:20;;;;;;;6.95;5.25;;;13.30;99.90;;;;;;4959433;28;20573;-77
2021/09/25 04:42:47;;;;;;;7.53;5.95;;;13.40;99.90;;;;;;4959403;28;20569;-77
2021/09/25 04:45:14;;;;;;;8.00;6.13;;;13.40;99.90;;;;;;4960002;28;20238;-77
2021/09/25 04:47:44;;;;;;;8.07;5.70;;;13.40;99.90;;;;;;4958972;28;20294;-77
2021/09/25 04:50:12;;;;;;;7.68;5.80;;;13.50;99.90;;;;;;4959615;28;20669;-77
2021/09/25 04:52:40;;;;;;;6.35;5.55;;;13.40;99.90;;;;;;4959313;28;20293;-77
2021/09/25 04:55:08;;;;;;;10.13;6.43;;;13.40;99.90;;;;;;4959348;28;20317;-77
2021/09/25 04:57:35;;;;;;;7.20;5.68;;;13.20;99.90;;;;;;4959272;28;20280;-77
2021/09/25 05:00:03;;;;;;;6.82;5.30;;;13.00;99.90;;;;;;4958856;28;20575;-77
2021/09/25 05:02:30;;;;;;;7.25;5.75;;;12.90;99.90;;;;;;4958755;28;20240;-77
2021/09/25 05:04:58;;;;;;;7.97;5.70;;;12.90;99.90;;;;;;4959098;28;20329;-77
2021/09/25 05:07:25;;;;;;;7.65;6.03;;;12.80;99.90;;;;;;4959271;28;20297;-77
2021/09/25 05:09:51;;;;;;;8.95;6.00;;;12.70;99.90;;;;;;4959129;28;20241;-77
2021/09/25 05:12:18;;;;;;;7.65;6.00;;;12.50;99.90;;;;;;4958292;28;20245;-77
2021/09/25 05:14:45;;;;;;;8.25;6.00;;;12.50;99.90;;;;;;4958855;28;20317;-77
2021/09/25 05:17:12;;;;;;;8.30;5.45;;;12.60;99.90;;;;;;4958963;28;20257;-77
2021/09/25 05:19:39;;;;;;;8.30;5.75;;;12.40;99.90;;;;;;4958891;28;20650;-77
2021/09/25 05:22:07;;;;;;;6.63;5.80;;;12.50;99.90;;;;;;4958888;28;20281;-77
2021/09/25 05:24:34;;;;;;;8.85;5.80;;;12.60;99.90;;;;;;4958878;28;20258;-77
2021/09/25 05:27:01;;;;;;;7.55;5.90;;;12.70;99.90;;;;;;4959305;28;20289;-77
2021/09/25 05:29:28;;;;;;;6.10;5.38;;;12.80;99.90;;;;;;4958755;28;20214;-77
2021/09/25 05:31:58;;;;;;;8.43;5.90;;;12.80;99.90;;;;;;4958296;28;20607;-77
2021/09/25 05:34:25;;;;;;;7.90;6.10;;;12.90;99.90;;;;;;4959404;28;20784;-77
2021/09/25 05:36:54;;;;;;;8.43;5.53;;;13.00;99.90;;;;;;4958974;28;20255;-77
2021/09/25 05:39:22;;;;;;;8.77;6.13;;;13.00;99.90;;;;;;4958885;28;20207;-77
2021/09/25 05:41:49;;;;;;;12.43;5.95;;;12.90;99.90;;;;;;4958288;28;20254;-77
2021/09/25 05:44:16;;;;;;;7.50;5.50;;;12.70;99.90;;;;;;4958335;28;20722;-78
2021/09/25 05:46:43;;;;;;;6.50;5.78;;;12.60;99.90;;;;;;4958854;28;20203;-77
2021/09/25 05:49:09;;;;;;;9.55;5.78;;;12.40;99.90;;;;;;4958885;28;20211;-77
2021/09/25 05:51:36;;;;;;;8.05;5.72;;;12.20;99.90;;;;;;4958101;28;20294;-77
2021/09/25 05:54:03;;;;;;;8.80;6.13;;;12.20;99.90;;;;;;4958576;28;20329;-77
2021/09/25 05:56:32;;;;;;;9.57;6.35;;;12.20;99.90;;;;;;4959394;28;20621;-77
2021/09/25 05:58:58;;;;;;;8.02;6.40;;;12.20;99.90;;;;;;4961829;28;20210;-77
2021/09/25 06:01:25;;;;;;;6.45;5.60;;;12.40;99.90;;;;;;4962664;28;20373;-77
2021/09/25 06:03:52;;;;;;;7.38;5.35;;;12.50;99.90;;;;;;4962264;28;20230;-78
2021/09/25 06:06:32;;;;;;;7.07;5.38;;;12.60;99.90;;;;;;4962692;28;20298;-77
2021/09/25 06:08:59;;;;;;;7.53;5.80;;;12.70;99.90;;;;;;4962532;28;20538;-77
2021/09/25 06:11:25;;;;;;;8.50;5.60;;;12.70;99.90;;;;;;4962314;28;20297;-77
2021/09/25 06:13:54;;;;;;;6.45;5.43;;;12.70;99.90;;;;;;4961873;28;20226;-77
2021/09/25 06:16:20;;;;;;;8.35;5.50;;;12.60;99.90;;;;;;4962302;28;20290;-77
2021/09/25 06:18:47;;;;;;;7.03;5.72;;;12.50;99.90;;;;;;4962195;28;20289;-77
2021/09/25 06:21:15;;;;;;;10.43;6.30;;;12.30;99.90;;;;;;4961713;28;20226;-77
2021/09/25 06:23:42;;;;;;;12.02;6.20;;;12.20;99.90;;;;;;4961977;28;20265;-77
2021/09/25 06:26:10;;;;;;;8.93;6.45;;;12.30;99.90;;;;;;4961923;28;20246;-77
2021/09/25 06:28:37;;;;;;;7.38;6.32;;;12.30;99.90;;;;;;4961582;28;20207;-77
2021/09/25 06:31:06;;;;;;;9.02;6.72;;;12.50;99.90;;;;;;4962018;28;20297;-77
2021/09/25 06:33:33;;;;;;;8.15;5.75;;;12.60;99.90;;;;;;4961225;28;20241;-77
2021/09/25 06:36:00;;;;;;;9.60;6.90;;;12.70;99.90;;;;;;4962010;28;20207;-77
2021/09/25 06:38:27;;;;;;;8.55;6.18;;;12.80;99.90;;;;;;4961317;28;20207;-78
2021/09/25 06:40:54;;;;;;;9.13;6.78;;;12.70;99.90;;;;;;4961463;28;20270;-77
2021/09/25 06:43:21;;;;;;;10.38;7.00;;;12.80;99.90;;;;;;4961529;28;20285;-77
2021/09/25 06:45:47;;;;;;;8.02;6.20;;;12.90;99.90;;;;;;4961676;28;20211;-77
2021/09/25 06:48:16;;;;;;;8.57;6.40;;;13.00;99.90;;;;;;4961929;28;20685;-77
2021/09/25 06:50:42;;;;;;;7.72;6.13;;;13.00;99.90;;;;;;4961460;28;20301;-77
2021/09/25 06:53:09;;;;;;;7.97;6.10;;;13.10;99.90;;;;;;4961258;28;20294;-77
2021/09/25 06:55:36;;;;;;;8.07;6.05;;;13.20;99.90;;;;;;4961193;28;20290;-77
2021/09/25 06:58:05;;;;;;;11.30;7.45;;;13.20;99.90;;;;;;4961531;28;20275;-77
2021/09/25 07:00:32;;;;;;;13.27;7.90;;;13.30;99.90;;;;;;4961285;28;20572;-77
2021/09/25 07:02:58;;;;;;;10.98;6.93;;;13.30;99.90;;;;;;4960595;28;20231;-77
2021/09/25 07:05:27;;;;;;;9.02;6.35;;;13.30;99.90;;;;;;4961104;28;20266;-77
2021/09/25 07:07:54;;;;;;;8.98;7.55;;;13.40;99.90;;;;;;4961320;28;20250;-77
2021/09/25 07:10:20;;;;;;;10.38;7.40;;;13.30;99.90;;;;;;4960703;28;20214;-77
2021/09/25 07:12:47;;;;;;;11.18;7.43;;;13.30;99.90;;;;;;4960470;28;20207;-77
2021/09/25 07:15:14;;;;;;;10.20;7.05;;;13.40;99.90;;;;;;4961117;28;20233;-77
2021/09/25 07:17:41;;;;;;;7.82;6.18;;;13.40;99.90;;;;;;4961306;28;20632;-77
2021/09/25 07:20:09;;;;;;;8.00;6.68;;;13.50;99.90;;;;;;4960819;28;20212;-77
2021/09/25 07:22:38;;;;;;;11.10;7.28;;;13.60;99.90;;;;;;4960626;28;20231;-78
2021/09/25 07:25:05;;;;;;;10.43;6.15;;;13.60;99.90;;;;;;4961036;28;20232;-77
2021/09/25 07:27:32;;;;;;;8.32;6.78;;;13.60;99.90;;;;;;4960946;28;20290;-77
2021/09/25 07:29:59;;;;;;;8.10;6.43;;;13.70;99.90;;;;;;4960451;28;20286;-77
2021/09/25 07:32:26;;;;;;;9.35;7.25;;;13.70;99.90;;;;;;4960101;28;20903;-77
2021/09/25 07:34:52;;;;;;;7.28;5.80;;;13.80;99.90;;;;;;4960611;28;20318;-77
2021/09/25 07:37:19;;;;;;;9.15;7.13;;;13.80;99.90;;;;;;4961142;28;20250;-78
2021/09/25 07:39:48;;;;;;;7.93;6.03;;;13.80;99.90;;;;;;4960396;28;20612;-78
2021/09/25 07:42:15;;;;;;;7.90;6.15;;;13.90;99.90;;;;;;4960364;28;20310;-77
2021/09/25 07:44:41;;;;;;;9.25;6.80;;;14.00;99.90;;;;;;4960293;28;20319;-77
2021/09/25 07:47:09;;;;;;;9.25;6.60;;;14.00;99.90;;;;;;4960501;28;20211;-78
2021/09/25 07:49:36;;;;;;;8.00;6.32;;;14.20;99.90;;;;;;4960090;28;20295;-77
2021/09/25 07:52:03;;;;;;;8.52;6.15;;;14.30;99.90;;;;;;4960665;28;20624;-77
2021/09/25 07:54:29;;;;;;;9.20;6.88;;;14.30;99.90;;;;;;4960619;28;20295;-77
2021/09/25 07:56:58;;;;;;;8.77;6.68;;;14.40;99.90;;;;;;4960070;28;20239;-77
2021/09/25 07:59:25;;;;;;;8.77;6.35;;;14.50;99.90;;;;;;4960446;28;20267;-77
2021/09/25 08:01:52;;;;;;;8.52;5.63;;;14.40;99.90;;;;;;4960198;28;20247;-78
2021/09/25 08:04:19;;;;;;;10.00;6.70;;;14.40;99.90;;;;;;4960266;28;20310;-78
2021/09/25 08:06:46;;;;;;;10.73;7.32;;;14.30;99.90;;;;;;4959726;28;20239;-78
2021/09/25 08:09:12;;;;;;;9.23;6.38;;;14.40;99.90;;;;;;4959553;28;20726;-78
2021/09/25 08:11:39;;;;;;;8.95;6.80;;;14.40;99.90;;;;;;4959826;28;20200;-77
2021/09/25 08:14:08;;;;;;;8.48;6.10;;;14.50;99.90;;;;;;4960012;28;20710;-78
2021/09/25 08:16:35;;;;;;;10.07;7.03;;;14.60;99.90;;;;;;4960010;28;20565;-78
2021/09/25 08:19:02;;;;;;;8.93;7.07;;;14.60;99.90;;;;;;4960161;28;20234;-77
2021/09/25 08:21:28;;;;;;;8.75;6.15;;;14.60;99.90;;;;;;4958831;28;20248;-77
2021/09/25 08:23:55;;;;;;;8.88;5.90;;;14.50;99.90;;;;;;4959435;28;20695;-77
2021/09/25 08:26:22;;;;;;;7.35;5.72;;;14.60;99.90;;;;;;4960133;28;20651;-77
2021/09/25 08:28:49;;;;;;;8.52;5.90;;;14.50;99.90;;;;;;4959373;28;20237;-77
2021/09/25 08:31:18;;;;;;;7.10;6.05;;;14.60;99.90;;;;;;4959353;28;20290;-77
2021/09/25 08:33:44;;;;;;;7.32;5.72;;;14.80;99.90;;;;;;4958978;28;20238;-78
2021/09/25 08:36:11;;;;;;;8.10;5.97;;;14.90;99.90;;;;;;4959856;28;20260;-77
2021/09/25 08:38:38;;;;;;;7.55;6.80;;;15.10;99.90;;;;;;4959600;28;20255;-78
2021/09/25 08:41:06;;;;;;;9.75;6.15;;;15.30;99.90;;;;;;4959045;28;20301;-78
2021/09/25 08:43:33;;;;;;;6.95;5.82;;;15.50;99.90;;;;;;4958968;28;20236;-78
2021/09/25 08:46:02;;;;;;;8.88;6.45;;;15.70;99.90;;;;;;4959070;28;20206;-78
2021/09/25 08:48:30;;;;;;;7.10;5.20;;;15.80;99.90;;;;;;4958832;28;20216;-78
2021/09/25 08:50:57;;;;;;;6.88;6.05;;;15.90;99.90;;;;;;4959799;28;20304;-78
2021/09/25 08:53:24;;;;;;;7.70;6.03;;;16.00;99.90;;;;;;4959021;28;20201;-78
2021/09/25 08:55:51;;;;;;;7.03;5.70;;;16.00;99.90;;;;;;4960121;28;20607;-79
2021/09/25 08:58:19;;;;;;;7.38;6.22;;;15.90;99.90;;;;;;4960606;28;20248;-79
2021/09/25 09:00:47;;;;;;;7.63;6.22;;;15.90;99.90;;;;;;4960477;28;20296;-76
2021/09/25 09:03:24;;;;;;;7.30;5.85;;;15.90;99.90;;;;;;4971033;28;20703;-78
2021/09/25 09:05:54;;;;;;;8.73;6.05;;;16.00;99.90;;;;;;4980558;28;20216;-78
2021/09/25 09:08:23;;;;;;;7.70;5.75;;;16.10;99.90;;;;;;4976726;28;20712;-76
2021/09/25 09:10:50;;;;;;;7.93;5.80;;;16.10;99.90;;;;;;4975526;28;20209;-75
2021/09/25 09:13:17;;;;;;;8.43;6.55;;;16.20;99.90;;;;;;4975751;28;20299;-78
2021/09/25 09:15:48;;;;;;;8.15;6.13;;;16.20;99.90;;;;;;4975671;28;20268;-76
2021/09/25 09:18:16;;;;;;;7.30;5.85;;;16.30;99.90;;;;;;4976155;28;20217;-78
2021/09/25 09:21:05;;;;;;;10.50;6.55;;;16.40;99.90;;;;;;4976192;28;20379;-77
2021/09/25 09:23:34;;;;;;;7.80;6.70;;;16.50;99.90;;;;;;4975925;28;20228;-78
2021/09/25 09:26:01;;;;;;;7.78;6.72;;;16.60;99.90;;;;;;4976080;28;20234;-76
2021/09/25 09:28:30;;;;;;;7.70;6.00;;;16.70;99.90;;;;;;4976721;28;20214;-76
2021/09/25 09:30:59;;;;;;;6.88;5.93;;;16.90;99.90;;;;;;4976464;28;20308;-76
2021/09/25 09:33:31;;;;;;;5.88;5.38;;;17.00;99.90;;;;;;4974983;28;20261;-76
2021/09/25 09:36:13;;;;;;;8.40;5.95;;;17.10;99.90;;;;;;4975772;28;20298;-75
2021/09/25 09:38:41;;;;;;;7.53;6.47;;;17.20;99.90;;;;;;4976008;28;20190;-75
2021/09/25 09:41:09;;;;;;;7.85;5.70;;;17.30;99.90;;;;;;4975886;28;20747;-76
2021/09/25 09:43:37;;;;;;;6.63;5.40;;;17.40;99.90;;;;;;4975708;28;20229;-78
2021/09/25 09:46:04;;;;;;;6.25;5.45;;;17.60;99.90;;;;;;4975600;28;20305;-78
2021/09/25 09:48:31;;;;;;;7.07;6.10;;;17.60;99.90;;;;;;4975966;28;20214;-78
2021/09/25 09:50:58;;;;;;;6.70;6.00;;;17.70;99.90;;;;;;4978661;28;20680;-80
2021/09/25 09:53:30;;;;;;;6.78;6.10;;;18.00;99.90;;;;;;4979018;28;20202;-80
2021/09/25 09:56:22;;;;;;;6.93;6.00;;;18.30;99.90;;;;;;4974309;28;20210;-78
2021/09/25 09:59:00;;;;;;;6.67;5.87;;;19.00;99.90;;;;;;4979236;28;20451;-78
2021/09/25 10:01:28;;;;;;;6.70;5.30;;;19.80;99.90;;;;;;4979237;28;20448;-77
2021/09/25 10:03:55;;;;;;;7.70;5.70;;;20.40;99.90;;;;;;4980925;28;20942;-80
2021/09/25 10:06:22;;;;;;;7.03;6.30;;;21.20;99.90;;;;;;4981393;28;20540;-79
2021/09/25 10:08:50;;;;;;;5.90;5.20;;;21.70;99.90;;;;;;4982743;28;20452;-79
2021/09/25 10:11:18;;;;;;;5.90;4.93;;;22.00;99.90;;;;;;4983513;28;20525;-78
2021/09/25 10:13:46;;;;;;;5.43;4.93;;;22.40;99.90;;;;;;4981128;28;20497;-78
2021/09/25 10:16:14;;;;;;;6.83;5.50;;;22.50;99.90;;;;;;4982630;28;20956;-77
2021/09/25 10:18:42;;;;;;;7.67;6.27;;;22.60;99.90;;;;;;4978239;28;20538;-78
2021/09/25 10:21:11;;;;;;;7.30;6.43;;;22.50;99.90;;;;;;4975842;28;20532;-78
2021/09/25 10:23:43;;;;;;;8.07;6.73;;;21.90;99.90;;;;;;4977812;28;20487;-79
2021/09/25 10:26:11;;;;;;;8.70;6.63;;;22.00;99.90;;;;;;4978413;28;20880;-78
2021/09/25 10:28:38;;;;;;;6.60;5.60;;;22.30;99.90;;;;;;4981976;28;20484;-78
2021/09/25 10:31:16;;;;;;;5.67;4.70;;;22.60;99.90;;;;;;4980672;28;20525;-78
2021/09/25 10:34:06;;;;;;;5.47;4.77;;;22.60;99.90;;;;;;4981066;28;20565;-77
2021/09/25 10:36:38;;;;;;;5.50;4.80;;;22.50;99.90;;;;;;4976835;28;20549;-79
2021/09/25 10:39:33;;;;;;;5.33;4.70;;;22.20;99.90;;;;;;4979135;28;20471;-79
2021/09/25 10:42:12;;;;;;;8.50;4.80;;;22.10;99.90;;;;;;4981220;28;20462;-78
2021/09/25 10:44:50;;;;;;;4.47;4.07;;;22.10;99.90;;;;;;4974894;28;20473;-78
2021/09/25 10:47:19;;;;;;;4.23;3.50;;;22.00;99.90;;;;;;4977063;28;20488;-77
2021/09/25 10:49:56;;;;;;;5.17;4.67;;;22.50;99.90;;;;;;4977105;28;20537;-77
2021/09/25 10:52:26;;;;;;;5.73;5.13;;;23.30;99.90;;;;;;4976222;28;20460;-78
2021/09/25 10:55:20;;;;;;;5.07;4.20;;;24.40;99.00;;;;;;4976368;28;20476;-78
2021/09/25 10:58:28;;;;;;;4.40;4.00;;;25.70;97.20;;;;;;4976274;28;20454;-77
2021/09/25 11:01:04;;;;;;;5.50;5.00;;;27.00;92.40;;;;;;4977129;28;20797;-78
2021/09/25 11:04:12;;;;;;;5.37;4.87;;;28.60;83.00;;;;;;4977485;28;20809;-76
2021/09/25 11:06:45;;;;;;;5.17;4.67;;;30.60;75.40;;;;;;4974714;28;20508;-78
2021/09/25 11:09:19;;;;;;;4.80;4.40;;;32.10;68.50;;;;;;4982843;28;20445;-79
2021/09/25 11:11:51;;;;;;;6.40;4.40;;;33.60;61.50;;;;;;4981017;28;20517;-79
2021/09/25 11:14:28;;;;;;;5.23;4.73;;;34.50;57.10;;;;;;4982435;28;20489;-76
2021/09/25 11:16:58;;;;;;;4.00;3.70;;;34.50;54.30;;;;;;4976282;28;20873;-77
2021/09/25 11:19:37;;;;;;;4.33;4.03;;;35.00;52.30;;;;;;4975643;28;20908;-75
2021/09/25 11:22:07;;;;;;;4.90;4.50;;;35.50;49.90;;;;;;4975573;28;20453;-75
2021/09/25 11:24:36;;;;;;;4.43;4.07;;;35.40;49.20;;;;;;4975744;28;20489;-75
2021/09/25 11:27:07;;;;;;;6.20;4.17;;;34.80;49.70;;;;;;4975838;28;20460;-77
2021/09/25 11:29:35;;;;;;;4.47;4.07;;;34.00;50.60;;;;;;4976413;28;20453;-74
2021/09/25 11:32:05;;;;;;;4.63;4.23;;;33.40;52.20;;;;;;4976872;28;20533;-77
2021/09/25 11:34:33;;;;;;;4.60;4.20;;;32.60;53.00;;;;;;4976602;28;20920;-77
2021/09/25 11:37:02;;;;;;;4.93;4.53;;;31.70;52.50;;;;;;4975596;28;20536;-75
2021/09/25 11:39:38;;;;;;;7.73;6.93;;;30.60;55.50;;;;;;4975662;28;20838;-75
2021/09/25 11:42:12;;;;;;;5.60;4.50;;;29.80;57.90;;;;;;4975308;28;20454;-75
2021/09/25 11:44:46;;;;;;;5.10;4.57;;;29.70;59.50;;;;;;4975440;28;20472;-76
2021/09/25 11:47:24;;;;;;;3.87;3.57;;;29.70;59.80;;;;;;4975510;28;20466;-75
2021/09/25 11:49:51;;;;;;;4.30;3.90;;;30.40;59.50;;;;;;4975492;28;20491;-75
2021/09/25 11:52:18;;;;;;;4.70;4.30;;;30.80;58.80;;;;;;4975277;28;20832;-75
2021/09/25 11:54:45;;;;;;;4.20;3.90;;;31.10;58.00;;;;;;4975172;28;20486;-76
2021/09/25 11:57:17;;;;;;;5.07;4.57;;;31.00;59.10;;;;;;4974962;28;20454;-75
2021/09/25 11:59:46;;;;;;;5.13;4.73;;;30.90;57.20;;;;;;4975399;28;20457;-75
2021/09/25 12:02:36;;;;;;;4.73;4.33;;;31.00;58.20;;;;;;4974938;28;20951;-75
2021/09/25 12:05:04;;;;;;;4.87;4.40;;;31.50;57.20;;;;;;4975162;28;20465;-75
2021/09/25 12:07:40;;;;;;;4.63;4.23;;;31.30;55.80;;;;;;4975014;28;20453;-76
2021/09/25 12:10:08;;;;;;;4.47;4.07;;;31.10;56.90;;;;;;4975374;28;20808;-75
2021/09/25 12:12:35;;;;;;;4.57;4.17;;;30.50;58.90;;;;;;4976830;28;20458;-78
2021/09/25 12:15:06;;;;;;;4.47;4.07;;;29.80;59.90;;;;;;4976298;28;20902;-77
2021/09/25 12:17:32;;;;;;;4.73;4.33;;;29.10;61.30;;;;;;4975639;28;20864;-77
2021/09/25 12:20:15;;;;;;;4.47;4.07;;;28.50;64.40;;;;;;4975681;28;20460;-77
2021/09/25 12:22:44;;;;;;;4.53;4.13;;;27.60;68.90;;;;;;4976664;28;20450;-75
2021/09/25 12:25:12;;;;;;;4.87;4.10;;;27.10;68.80;;;;;;4975707;28;20481;-75
2021/09/25 12:27:41;;;;;;;4.30;3.90;;;26.70;68.10;;;;;;4975772;28;20516;-74
2021/09/25 12:30:11;;;;;;;3.90;3.47;;;26.40;71.70;;;;;;4975788;28;20454;-74
2021/09/25 12:32:41;;;;;;;3.43;3.13;;;26.00;72.60;;;;;;4975273;28;20457;-74
2021/09/25 12:35:19;;;;;;;3.33;3.03;;;25.90;71.40;;;;;;4975367;28;20457;-73
2021/09/25 12:37:50;;;;;;;3.90;3.50;;;25.70;74.50;;;;;;4975810;28;20456;-74
2021/09/25 12:40:18;;;;;;;4.03;3.70;;;25.50;76.70;;;;;;4975842;28;20457;-73
2021/09/25 12:42:46;;;;;;;4.67;4.27;;;25.40;78.50;;;;;;4975351;28;20536;-75
2021/09/25 12:45:15;;;;;;;4.30;3.90;;;25.40;78.80;;;;;;4975531;28;20485;-73
2021/09/25 12:47:42;;;;;;;3.97;3.60;;;25.40;77.60;;;;;;4974873;28;20861;-73
2021/09/25 12:50:20;;;;;;;3.70;3.33;;;25.40;76.40;;;;;;4980123;28;20488;-79
2021/09/25 12:52:54;;;;;;;3.60;3.30;;;25.30;75.60;;;;;;4980710;28;20833;-79